sensor_id;sensor_type;location;lat;lon;timestamp;P1;durP1;ratioP1;P2;durP2;ratioP2
78752;SDS011;68072;51.688;7.842;2023-02-28T00:01:32;3.42;;;1.40;;
78752;SDS011;68072;51.688;7.842;2023-02-28T00:03:57;1.95;;;1.33;;
78752;SDS011;68072;51.688;7.842;2023-02-28T00:06:23;3.42;;;1.30;;
78752;SDS011;68072;51.688;7.842;2023-02-28T00:08:49;2.17;;;1.40;;
78752;SDS011;68072;51.688;7.842;2023-02-28T00:11:15;2.60;;;1.48;;
78752;SDS011;68072;51.688;7.842;2023-02-28T00:13:42;2.22;;;1.55;;
78752;SDS011;68072;51.688;7.842;2023-02-28T00:16:12;1.70;;;1.30;;
78752;SDS011;68072;51.688;7.842;2023-02-28T00:18:39;1.80;;;1.45;;
78752;SDS011;68072;51.688;7.842;2023-02-28T00:21:05;4.40;;;1.88;;
78752;SDS011;68072;51.688;7.842;2023-02-28T00:23:30;1.45;;;1.23;;
78752;SDS011;68072;51.688;7.842;2023-02-28T00:25:56;1.40;;;1.33;;
78752;SDS011;68072;51.688;7.842;2023-02-28T00:28:22;1.60;;;1.50;;
78752;SDS011;68072;51.688;7.842;2023-02-28T00:30:47;2.53;;;1.30;;
78752;SDS011;68072;51.688;7.842;2023-02-28T00:33:13;2.15;;;1.38;;
78752;SDS011;68072;51.688;7.842;2023-02-28T00:35:38;1.10;;;1.05;;
78752;SDS011;68072;51.688;7.842;2023-02-28T00:38:04;1.13;;;1.13;;
78752;SDS011;68072;51.688;7.842;2023-02-28T00:40:30;1.38;;;1.27;;
78752;SDS011;68072;51.688;7.842;2023-02-28T00:42:56;1.38;;;1.10;;
78752;SDS011;68072;51.688;7.842;2023-02-28T00:45:21;5.38;;;1.60;;
78752;SDS011;68072;51.688;7.842;2023-02-28T00:47:46;2.00;;;1.10;;
78752;SDS011;68072;51.688;7.842;2023-02-28T00:50:15;1.75;;;1.35;;
78752;SDS011;68072;51.688;7.842;2023-02-28T00:52:42;2.63;;;1.40;;
78752;SDS011;68072;51.688;7.842;2023-02-28T00:55:07;1.60;;;1.50;;
78752;SDS011;68072;51.688;7.842;2023-02-28T00:57:33;4.70;;;1.25;;
78752;SDS011;68072;51.688;7.842;2023-02-28T00:59:58;1.50;;;1.38;;
78752;SDS011;68072;51.688;7.842;2023-02-28T01:02:24;1.90;;;1.20;;
78752;SDS011;68072;51.688;7.842;2023-02-28T01:04:49;3.20;;;1.70;;
78752;SDS011;68072;51.688;7.842;2023-02-28T01:07:15;1.25;;;1.13;;
78752;SDS011;68072;51.688;7.842;2023-02-28T01:09:41;1.40;;;1.30;;
78752;SDS011;68072;51.688;7.842;2023-02-28T01:12:07;2.15;;;1.58;;
78752;SDS011;68072;51.688;7.842;2023-02-28T01:14:33;1.25;;;1.20;;
78752;SDS011;68072;51.688;7.842;2023-02-28T01:16:59;1.38;;;1.30;;
78752;SDS011;68072;51.688;7.842;2023-02-28T01:19:25;2.15;;;1.13;;
78752;SDS011;68072;51.688;7.842;2023-02-28T01:21:50;1.40;;;1.30;;
78752;SDS011;68072;51.688;7.842;2023-02-28T01:24:15;2.03;;;1.42;;
78752;SDS011;68072;51.688;7.842;2023-02-28T01:26:42;4.40;;;1.58;;
78752;SDS011;68072;51.688;7.842;2023-02-28T01:29:07;2.15;;;1.20;;
78752;SDS011;68072;51.688;7.842;2023-02-28T01:31:33;1.42;;;1.33;;
78752;SDS011;68072;51.688;7.842;2023-02-28T01:33:58;1.88;;;1.60;;
78752;SDS011;68072;51.688;7.842;2023-02-28T01:36:24;1.63;;;1.52;;
78752;SDS011;68072;51.688;7.842;2023-02-28T01:38:50;2.88;;;2.00;;
78752;SDS011;68072;51.688;7.842;2023-02-28T01:41:22;1.52;;;1.42;;
78752;SDS011;68072;51.688;7.842;2023-02-28T01:43:54;2.80;;;1.65;;
78752;SDS011;68072;51.688;7.842;2023-02-28T01:46:24;2.83;;;1.50;;
78752;SDS011;68072;51.688;7.842;2023-02-28T01:48:54;2.85;;;1.85;;
78752;SDS011;68072;51.688;7.842;2023-02-28T01:51:22;1.40;;;1.30;;
78752;SDS011;68072;51.688;7.842;2023-02-28T01:53:53;3.97;;;1.70;;
78752;SDS011;68072;51.688;7.842;2023-02-28T01:56:23;1.70;;;1.52;;
78752;SDS011;68072;51.688;7.842;2023-02-28T01:58:50;3.13;;;1.90;;
78752;SDS011;68072;51.688;7.842;2023-02-28T02:01:16;1.92;;;1.65;;
78752;SDS011;68072;51.688;7.842;2023-02-28T02:03:53;2.05;;;1.50;;
78752;SDS011;68072;51.688;7.842;2023-02-28T02:06:22;1.55;;;1.40;;
78752;SDS011;68072;51.688;7.842;2023-02-28T02:08:48;2.30;;;1.63;;
78752;SDS011;68072;51.688;7.842;2023-02-28T02:11:14;3.75;;;1.58;;
78752;SDS011;68072;51.688;7.842;2023-02-28T02:18:54;2.75;;;1.60;;
78752;SDS011;68072;51.688;7.842;2023-02-28T02:27:03;1.63;;;1.52;;
78752;SDS011;68072;51.688;7.842;2023-02-28T02:33:06;3.22;;;1.55;;
78752;SDS011;68072;51.688;7.842;2023-02-28T02:40:35;1.52;;;1.40;;
78752;SDS011;68072;51.688;7.842;2023-02-28T02:43:12;1.20;;;1.17;;
78752;SDS011;68072;51.688;7.842;2023-02-28T02:45:49;1.40;;;1.30;;
78752;SDS011;68072;51.688;7.842;2023-02-28T02:48:16;2.20;;;1.73;;
78752;SDS011;68072;51.688;7.842;2023-02-28T02:50:45;1.67;;;1.48;;
78752;SDS011;68072;51.688;7.842;2023-02-28T02:53:13;3.53;;;1.50;;
78752;SDS011;68072;51.688;7.842;2023-02-28T02:55:40;1.42;;;1.33;;
78752;SDS011;68072;51.688;7.842;2023-02-28T02:58:16;2.65;;;1.50;;
78752;SDS011;68072;51.688;7.842;2023-02-28T03:00:44;3.35;;;1.80;;
78752;SDS011;68072;51.688;7.842;2023-02-28T03:03:13;1.55;;;1.40;;
78752;SDS011;68072;51.688;7.842;2023-02-28T03:05:41;1.83;;;1.70;;
78752;SDS011;68072;51.688;7.842;2023-02-28T03:08:09;3.08;;;1.67;;
78752;SDS011;68072;51.688;7.842;2023-02-28T03:10:36;1.70;;;1.60;;
78752;SDS011;68072;51.688;7.842;2023-02-28T03:18:32;1.80;;;1.70;;
78752;SDS011;68072;51.688;7.842;2023-02-28T03:21:03;1.75;;;1.65;;
78752;SDS011;68072;51.688;7.842;2023-02-28T03:23:59;2.15;;;1.95;;
78752;SDS011;68072;51.688;7.842;2023-02-28T03:26:29;4.80;;;1.50;;
78752;SDS011;68072;51.688;7.842;2023-02-28T03:29:01;3.13;;;1.77;;
78752;SDS011;68072;51.688;7.842;2023-02-28T03:31:41;2.13;;;1.88;;
78752;SDS011;68072;51.688;7.842;2023-02-28T03:36:48;5.20;;;1.73;;
78752;SDS011;68072;51.688;7.842;2023-02-28T03:39:20;1.88;;;1.50;;
78752;SDS011;68072;51.688;7.842;2023-02-28T03:44:25;1.52;;;1.40;;
78752;SDS011;68072;51.688;7.842;2023-02-28T03:46:57;1.60;;;1.50;;
78752;SDS011;68072;51.688;7.842;2023-02-28T03:49:35;3.47;;;1.70;;
78752;SDS011;68072;51.688;7.842;2023-02-28T03:52:08;2.00;;;1.52;;
78752;SDS011;68072;51.688;7.842;2023-02-28T03:54:36;2.03;;;1.75;;
78752;SDS011;68072;51.688;7.842;2023-02-28T04:00:27;3.30;;;1.95;;
78752;SDS011;68072;51.688;7.842;2023-02-28T04:02:49;2.63;;;1.83;;
78752;SDS011;68072;51.688;7.842;2023-02-28T04:05:18;1.77;;;1.67;;
78752;SDS011;68072;51.688;7.842;2023-02-28T04:07:44;1.50;;;1.40;;
78752;SDS011;68072;51.688;7.842;2023-02-28T04:10:09;1.73;;;1.63;;
78752;SDS011;68072;51.688;7.842;2023-02-28T04:12:36;1.48;;;1.38;;
78752;SDS011;68072;51.688;7.842;2023-02-28T04:15:01;1.98;;;1.83;;
78752;SDS011;68072;51.688;7.842;2023-02-28T04:17:27;1.60;;;1.50;;
78752;SDS011;68072;51.688;7.842;2023-02-28T04:19:52;1.98;;;1.75;;
78752;SDS011;68072;51.688;7.842;2023-02-28T04:22:21;5.05;;;2.20;;
78752;SDS011;68072;51.688;7.842;2023-02-28T04:24:46;3.85;;;1.55;;
78752;SDS011;68072;51.688;7.842;2023-02-28T04:27:12;1.40;;;1.40;;
78752;SDS011;68072;51.688;7.842;2023-02-28T04:29:37;2.92;;;1.85;;
78752;SDS011;68072;51.688;7.842;2023-02-28T04:32:03;4.65;;;2.17;;
78752;SDS011;68072;51.688;7.842;2023-02-28T04:34:29;4.18;;;2.10;;
78752;SDS011;68072;51.688;7.842;2023-02-28T04:36:56;7.32;;;2.22;;
78752;SDS011;68072;51.688;7.842;2023-02-28T04:39:22;4.10;;;2.10;;
78752;SDS011;68072;51.688;7.842;2023-02-28T04:41:48;2.20;;;1.70;;
78752;SDS011;68072;51.688;7.842;2023-02-28T04:44:14;1.83;;;1.73;;
78752;SDS011;68072;51.688;7.842;2023-02-28T04:46:40;2.42;;;2.10;;
78752;SDS011;68072;51.688;7.842;2023-02-28T04:49:06;2.67;;;1.98;;
78752;SDS011;68072;51.688;7.842;2023-02-28T04:51:31;3.35;;;2.05;;
78752;SDS011;68072;51.688;7.842;2023-02-28T04:53:57;3.30;;;1.98;;
78752;SDS011;68072;51.688;7.842;2023-02-28T04:56:22;6.25;;;2.30;;
78752;SDS011;68072;51.688;7.842;2023-02-28T04:58:48;2.25;;;1.90;;
78752;SDS011;68072;51.688;7.842;2023-02-28T05:01:17;3.42;;;2.40;;
78752;SDS011;68072;51.688;7.842;2023-02-28T05:03:44;8.98;;;5.45;;
78752;SDS011;68072;51.688;7.842;2023-02-28T05:06:10;6.88;;;4.70;;
78752;SDS011;68072;51.688;7.842;2023-02-28T05:08:36;6.00;;;4.47;;
78752;SDS011;68072;51.688;7.842;2023-02-28T05:11:01;7.88;;;4.95;;
78752;SDS011;68072;51.688;7.842;2023-02-28T05:13:27;5.65;;;4.47;;
78752;SDS011;68072;51.688;7.842;2023-02-28T05:15:53;7.25;;;3.70;;
78752;SDS011;68072;51.688;7.842;2023-02-28T05:18:19;4.75;;;3.58;;
78752;SDS011;68072;51.688;7.842;2023-02-28T05:20:45;4.65;;;2.80;;
78752;SDS011;68072;51.688;7.842;2023-02-28T05:23:13;2.67;;;2.47;;
78752;SDS011;68072;51.688;7.842;2023-02-28T05:25:40;4.55;;;2.67;;
78752;SDS011;68072;51.688;7.842;2023-02-28T05:28:06;2.28;;;2.13;;
78752;SDS011;68072;51.688;7.842;2023-02-28T05:30:31;5.70;;;2.20;;
78752;SDS011;68072;51.688;7.842;2023-02-28T05:32:57;2.30;;;2.05;;
78752;SDS011;68072;51.688;7.842;2023-02-28T05:35:23;3.05;;;2.25;;
78752;SDS011;68072;51.688;7.842;2023-02-28T05:37:48;5.40;;;2.10;;
78752;SDS011;68072;51.688;7.842;2023-02-28T05:40:14;3.25;;;2.30;;
78752;SDS011;68072;51.688;7.842;2023-02-28T05:42:40;2.25;;;1.98;;
78752;SDS011;68072;51.688;7.842;2023-02-28T05:45:06;2.17;;;2.00;;
78752;SDS011;68072;51.688;7.842;2023-02-28T05:47:32;5.03;;;2.55;;
78752;SDS011;68072;51.688;7.842;2023-02-28T05:49:57;2.28;;;1.90;;
78752;SDS011;68072;51.688;7.842;2023-02-28T05:52:22;3.13;;;1.98;;
78752;SDS011;68072;51.688;7.842;2023-02-28T05:54:48;2.30;;;2.10;;
78752;SDS011;68072;51.688;7.842;2023-02-28T05:57:13;2.30;;;1.98;;
78752;SDS011;68072;51.688;7.842;2023-02-28T05:59:39;2.75;;;1.85;;
78752;SDS011;68072;51.688;7.842;2023-02-28T06:02:05;5.47;;;2.33;;
78752;SDS011;68072;51.688;7.842;2023-02-28T06:04:31;3.47;;;2.28;;
78752;SDS011;68072;51.688;7.842;2023-02-28T06:06:57;1.98;;;1.77;;
78752;SDS011;68072;51.688;7.842;2023-02-28T06:09:22;5.10;;;2.40;;
78752;SDS011;68072;51.688;7.842;2023-02-28T06:11:48;3.03;;;1.83;;
78752;SDS011;68072;51.688;7.842;2023-02-28T06:14:14;3.00;;;1.92;;
78752;SDS011;68072;51.688;7.842;2023-02-28T06:16:41;2.45;;;2.13;;
78752;SDS011;68072;51.688;7.842;2023-02-28T06:19:08;2.38;;;2.17;;
78752;SDS011;68072;51.688;7.842;2023-02-28T06:21:33;2.85;;;2.47;;
78752;SDS011;68072;51.688;7.842;2023-02-28T06:23:59;2.30;;;2.10;;
78752;SDS011;68072;51.688;7.842;2023-02-28T06:26:25;3.92;;;2.40;;
78752;SDS011;68072;51.688;7.842;2023-02-28T06:28:50;5.28;;;2.45;;
78752;SDS011;68072;51.688;7.842;2023-02-28T06:31:16;3.25;;;2.35;;
78752;SDS011;68072;51.688;7.842;2023-02-28T06:33:43;3.35;;;2.65;;
78752;SDS011;68072;51.688;7.842;2023-02-28T06:36:10;5.47;;;2.30;;
78752;SDS011;68072;51.688;7.842;2023-02-28T06:38:36;3.30;;;2.80;;
78752;SDS011;68072;51.688;7.842;2023-02-28T06:41:02;4.30;;;2.90;;
78752;SDS011;68072;51.688;7.842;2023-02-28T06:43:28;4.55;;;2.95;;
78752;SDS011;68072;51.688;7.842;2023-02-28T06:45:55;3.15;;;2.85;;
78752;SDS011;68072;51.688;7.842;2023-02-28T06:48:22;7.50;;;2.67;;
78752;SDS011;68072;51.688;7.842;2023-02-28T06:50:47;4.65;;;2.50;;
78752;SDS011;68072;51.688;7.842;2023-02-28T06:53:13;3.00;;;2.35;;
78752;SDS011;68072;51.688;7.842;2023-02-28T06:55:39;3.33;;;2.70;;
78752;SDS011;68072;51.688;7.842;2023-02-28T06:58:05;5.45;;;2.75;;
78752;SDS011;68072;51.688;7.842;2023-02-28T07:00:40;3.33;;;2.38;;
78752;SDS011;68072;51.688;7.842;2023-02-28T07:03:07;5.85;;;2.70;;
78752;SDS011;68072;51.688;7.842;2023-02-28T07:05:34;5.82;;;2.63;;
78752;SDS011;68072;51.688;7.842;2023-02-28T07:08:00;7.22;;;3.03;;
78752;SDS011;68072;51.688;7.842;2023-02-28T07:10:25;3.28;;;2.58;;
78752;SDS011;68072;51.688;7.842;2023-02-28T07:12:51;5.30;;;3.10;;
78752;SDS011;68072;51.688;7.842;2023-02-28T07:15:16;7.15;;;2.53;;
78752;SDS011;68072;51.688;7.842;2023-02-28T07:17:42;5.30;;;2.65;;
78752;SDS011;68072;51.688;7.842;2023-02-28T07:20:07;5.70;;;2.60;;
78752;SDS011;68072;51.688;7.842;2023-02-28T07:22:33;2.83;;;2.60;;
78752;SDS011;68072;51.688;7.842;2023-02-28T07:24:58;7.68;;;3.20;;
78752;SDS011;68072;51.688;7.842;2023-02-28T07:27:25;4.80;;;2.78;;
78752;SDS011;68072;51.688;7.842;2023-02-28T07:29:51;3.75;;;2.95;;
78752;SDS011;68072;51.688;7.842;2023-02-28T07:32:17;4.25;;;2.75;;
78752;SDS011;68072;51.688;7.842;2023-02-28T07:34:43;4.13;;;3.10;;
78752;SDS011;68072;51.688;7.842;2023-02-28T07:37:09;4.93;;;3.25;;
78752;SDS011;68072;51.688;7.842;2023-02-28T07:39:34;3.47;;;3.03;;
78752;SDS011;68072;51.688;7.842;2023-02-28T07:41:59;6.93;;;3.38;;
78752;SDS011;68072;51.688;7.842;2023-02-28T07:44:26;4.05;;;2.97;;
78752;SDS011;68072;51.688;7.842;2023-02-28T07:46:52;4.13;;;2.80;;
78752;SDS011;68072;51.688;7.842;2023-02-28T07:49:18;4.75;;;3.17;;
78752;SDS011;68072;51.688;7.842;2023-02-28T07:51:43;3.50;;;3.00;;
78752;SDS011;68072;51.688;7.842;2023-02-28T07:54:09;3.92;;;3.10;;
78752;SDS011;68072;51.688;7.842;2023-02-28T07:56:34;5.00;;;3.30;;
78752;SDS011;68072;51.688;7.842;2023-02-28T07:59:00;5.53;;;3.20;;
78752;SDS011;68072;51.688;7.842;2023-02-28T08:01:26;6.60;;;3.00;;
78752;SDS011;68072;51.688;7.842;2023-02-28T08:03:52;4.75;;;3.30;;
78752;SDS011;68072;51.688;7.842;2023-02-28T08:06:21;6.10;;;3.15;;
78752;SDS011;68072;51.688;7.842;2023-02-28T08:08:47;5.60;;;3.25;;
78752;SDS011;68072;51.688;7.842;2023-02-28T08:11:13;5.63;;;2.92;;
78752;SDS011;68072;51.688;7.842;2023-02-28T08:13:38;4.03;;;2.53;;
78752;SDS011;68072;51.688;7.842;2023-02-28T08:16:04;3.10;;;2.78;;
78752;SDS011;68072;51.688;7.842;2023-02-28T08:18:30;9.32;;;2.80;;
78752;SDS011;68072;51.688;7.842;2023-02-28T08:20:55;6.75;;;3.22;;
78752;SDS011;68072;51.688;7.842;2023-02-28T08:23:21;4.47;;;2.70;;
78752;SDS011;68072;51.688;7.842;2023-02-28T08:25:56;8.15;;;4.10;;
78752;SDS011;68072;51.688;7.842;2023-02-28T08:28:22;6.20;;;2.92;;
78752;SDS011;68072;51.688;7.842;2023-02-28T08:30:47;5.60;;;2.83;;
78752;SDS011;68072;51.688;7.842;2023-02-28T08:33:14;4.65;;;3.25;;
78752;SDS011;68072;51.688;7.842;2023-02-28T08:35:39;4.18;;;2.80;;
78752;SDS011;68072;51.688;7.842;2023-02-28T08:38:04;3.25;;;2.63;;
78752;SDS011;68072;51.688;7.842;2023-02-28T08:40:30;6.03;;;3.00;;
78752;SDS011;68072;51.688;7.842;2023-02-28T08:42:55;4.60;;;2.72;;
78752;SDS011;68072;51.688;7.842;2023-02-28T08:45:21;2.63;;;2.42;;
78752;SDS011;68072;51.688;7.842;2023-02-28T08:47:46;3.70;;;2.45;;
78752;SDS011;68072;51.688;7.842;2023-02-28T08:50:11;3.88;;;2.75;;
78752;SDS011;68072;51.688;7.842;2023-02-28T08:52:41;1.92;;;1.75;;
78752;SDS011;68072;51.688;7.842;2023-02-28T08:55:07;4.80;;;2.35;;
78752;SDS011;68072;51.688;7.842;2023-02-28T08:57:34;9.07;;;2.45;;
78752;SDS011;68072;51.688;7.842;2023-02-28T08:59:59;4.95;;;1.73;;
78752;SDS011;68072;51.688;7.842;2023-02-28T09:02:26;4.38;;;1.58;;
78752;SDS011;68072;51.688;7.842;2023-02-28T09:04:52;1.77;;;1.40;;
78752;SDS011;68072;51.688;7.842;2023-02-28T09:07:17;2.67;;;1.48;;
78752;SDS011;68072;51.688;7.842;2023-02-28T09:09:42;1.25;;;1.10;;
78752;SDS011;68072;51.688;7.842;2023-02-28T09:12:19;1.70;;;1.30;;
78752;SDS011;68072;51.688;7.842;2023-02-28T09:14:47;2.53;;;2.25;;
78752;SDS011;68072;51.688;7.842;2023-02-28T09:17:12;2.35;;;1.75;;
78752;SDS011;68072;51.688;7.842;2023-02-28T09:19:38;1.75;;;1.60;;
78752;SDS011;68072;51.688;7.842;2023-02-28T09:22:03;2.63;;;1.80;;
78752;SDS011;68072;51.688;7.842;2023-02-28T09:24:29;3.88;;;1.83;;
78752;SDS011;68072;51.688;7.842;2023-02-28T09:26:56;3.47;;;1.98;;
78752;SDS011;68072;51.688;7.842;2023-02-28T09:29:22;3.92;;;2.60;;
78752;SDS011;68072;51.688;7.842;2023-02-28T09:31:47;4.40;;;2.47;;
78752;SDS011;68072;51.688;7.842;2023-02-28T09:34:13;11.52;;;5.60;;
78752;SDS011;68072;51.688;7.842;2023-02-28T09:36:38;4.63;;;2.08;;
78752;SDS011;68072;51.688;7.842;2023-02-28T09:39:04;1.92;;;1.48;;
78752;SDS011;68072;51.688;7.842;2023-02-28T09:41:32;2.15;;;1.65;;
78752;SDS011;68072;51.688;7.842;2023-02-28T09:44:05;1.60;;;1.38;;
78752;SDS011;68072;51.688;7.842;2023-02-28T09:46:34;1.55;;;1.45;;
78752;SDS011;68072;51.688;7.842;2023-02-28T09:49:05;1.65;;;1.55;;
78752;SDS011;68072;51.688;7.842;2023-02-28T09:54:19;2.47;;;1.33;;
78752;SDS011;68072;51.688;7.842;2023-02-28T10:10:18;1.48;;;1.38;;
78752;SDS011;68072;51.688;7.842;2023-02-28T10:12:45;1.73;;;1.48;;
78752;SDS011;68072;51.688;7.842;2023-02-28T10:15:15;2.40;;;1.38;;
78752;SDS011;68072;51.688;7.842;2023-02-28T10:17:42;1.75;;;1.38;;
78752;SDS011;68072;51.688;7.842;2023-02-28T10:20:14;1.33;;;1.25;;
78752;SDS011;68072;51.688;7.842;2023-02-28T10:22:52;2.13;;;1.92;;
78752;SDS011;68072;51.688;7.842;2023-02-28T10:25:39;3.63;;;2.60;;
78752;SDS011;68072;51.688;7.842;2023-02-28T10:30:33;2.17;;;1.52;;
78752;SDS011;68072;51.688;7.842;2023-02-28T10:32:58;4.22;;;2.25;;
78752;SDS011;68072;51.688;7.842;2023-02-28T10:35:24;2.72;;;1.90;;
78752;SDS011;68072;51.688;7.842;2023-02-28T10:37:54;3.88;;;2.25;;
78752;SDS011;68072;51.688;7.842;2023-02-28T10:43:00;3.77;;;1.73;;
78752;SDS011;68072;51.688;7.842;2023-02-28T10:45:34;1.40;;;1.30;;
78752;SDS011;68072;51.688;7.842;2023-02-28T10:58:45;2.25;;;2.05;;
78752;SDS011;68072;51.688;7.842;2023-02-28T11:03:55;6.22;;;2.05;;
78752;SDS011;68072;51.688;7.842;2023-02-28T11:06:23;2.28;;;2.08;;
78752;SDS011;68072;51.688;7.842;2023-02-28T11:08:58;2.10;;;1.90;;
78752;SDS011;68072;51.688;7.842;2023-02-28T11:11:26;4.30;;;2.67;;
78752;SDS011;68072;51.688;7.842;2023-02-28T11:13:53;6.03;;;4.25;;
78752;SDS011;68072;51.688;7.842;2023-02-28T11:16:21;5.13;;;3.13;;
78752;SDS011;68072;51.688;7.842;2023-02-28T11:21:16;4.55;;;2.15;;
78752;SDS011;68072;51.688;7.842;2023-02-28T11:23:45;3.20;;;2.08;;
78752;SDS011;68072;51.688;7.842;2023-02-28T11:26:10;3.75;;;1.95;;
78752;SDS011;68072;51.688;7.842;2023-02-28T11:28:39;2.25;;;2.00;;
78752;SDS011;68072;51.688;7.842;2023-02-28T11:36:27;1.98;;;1.83;;
78752;SDS011;68072;51.688;7.842;2023-02-28T11:38:54;2.72;;;2.13;;
78752;SDS011;68072;51.688;7.842;2023-02-28T11:49:45;2.92;;;1.63;;
78752;SDS011;68072;51.688;7.842;2023-02-28T11:52:41;1.77;;;1.58;;
78752;SDS011;68072;51.688;7.842;2023-02-28T11:55:14;2.47;;;1.50;;
78752;SDS011;68072;51.688;7.842;2023-02-28T11:58:29;2.47;;;1.58;;
78752;SDS011;68072;51.688;7.842;2023-02-28T12:06:15;1.13;;;1.02;;
78752;SDS011;68072;51.688;7.842;2023-02-28T12:19:35;3.78;;;1.80;;
78752;SDS011;68072;51.688;7.842;2023-02-28T12:22:05;2.53;;;1.70;;
78752;SDS011;68072;51.688;7.842;2023-02-28T12:27:21;3.67;;;2.25;;
78752;SDS011;68072;51.688;7.842;2023-02-28T12:29:53;1.70;;;1.60;;
78752;SDS011;68072;51.688;7.842;2023-02-28T12:32:23;3.55;;;2.05;;
78752;SDS011;68072;51.688;7.842;2023-02-28T12:37:34;3.85;;;2.05;;
78752;SDS011;68072;51.688;7.842;2023-02-28T12:40:09;2.65;;;1.67;;
78752;SDS011;68072;51.688;7.842;2023-02-28T12:42:42;3.65;;;1.88;;
78752;SDS011;68072;51.688;7.842;2023-02-28T12:47:44;2.50;;;2.30;;
78752;SDS011;68072;51.688;7.842;2023-02-28T12:50:13;3.40;;;2.35;;
78752;SDS011;68072;51.688;7.842;2023-02-28T12:58:28;6.10;;;2.78;;
78752;SDS011;68072;51.688;7.842;2023-02-28T13:03:41;2.40;;;2.20;;
78752;SDS011;68072;51.688;7.842;2023-02-28T13:09:23;3.05;;;1.83;;
78752;SDS011;68072;51.688;7.842;2023-02-28T13:11:49;4.93;;;2.17;;
78752;SDS011;68072;51.688;7.842;2023-02-28T13:14:20;2.78;;;2.13;;
78752;SDS011;68072;51.688;7.842;2023-02-28T13:22:21;2.97;;;2.25;;
78752;SDS011;68072;51.688;7.842;2023-02-28T13:34:19;2.35;;;2.03;;
78752;SDS011;68072;51.688;7.842;2023-02-28T13:36:44;2.33;;;2.13;;
78752;SDS011;68072;51.688;7.842;2023-02-28T13:48:16;2.38;;;2.17;;
78752;SDS011;68072;51.688;7.842;2023-02-28T13:50:43;3.15;;;2.20;;
78752;SDS011;68072;51.688;7.842;2023-02-28T13:55:41;2.92;;;2.50;;
78752;SDS011;68072;51.688;7.842;2023-02-28T14:03:52;2.40;;;2.20;;
78752;SDS011;68072;51.688;7.842;2023-02-28T14:06:28;4.15;;;2.40;;
78752;SDS011;68072;51.688;7.842;2023-02-28T14:09:02;2.78;;;2.50;;
78752;SDS011;68072;51.688;7.842;2023-02-28T14:11:37;2.00;;;1.73;;
78752;SDS011;68072;51.688;7.842;2023-02-28T14:14:04;2.85;;;2.60;;
78752;SDS011;68072;51.688;7.842;2023-02-28T14:19:19;4.18;;;2.55;;
78752;SDS011;68072;51.688;7.842;2023-02-28T14:27:26;3.08;;;2.40;;
78752;SDS011;68072;51.688;7.842;2023-02-28T14:33:05;2.22;;;2.13;;
78752;SDS011;68072;51.688;7.842;2023-02-28T14:38:06;5.80;;;2.30;;
78752;SDS011;68072;51.688;7.842;2023-02-28T14:40:40;3.17;;;2.42;;
78752;SDS011;68072;51.688;7.842;2023-02-28T14:43:06;2.47;;;2.10;;
78752;SDS011;68072;51.688;7.842;2023-02-28T14:45:41;2.53;;;2.28;;
78752;SDS011;68072;51.688;7.842;2023-02-28T14:48:08;3.60;;;2.15;;
78752;SDS011;68072;51.688;7.842;2023-02-28T14:50:35;2.10;;;1.95;;
78752;SDS011;68072;51.688;7.842;2023-02-28T14:53:02;2.13;;;2.03;;
78752;SDS011;68072;51.688;7.842;2023-02-28T14:55:29;3.50;;;2.55;;
78752;SDS011;68072;51.688;7.842;2023-02-28T14:57:56;3.25;;;2.40;;
78752;SDS011;68072;51.688;7.842;2023-02-28T15:00:28;3.28;;;2.75;;
78752;SDS011;68072;51.688;7.842;2023-02-28T15:02:55;2.78;;;2.40;;
78752;SDS011;68072;51.688;7.842;2023-02-28T15:08:09;3.42;;;2.22;;
78752;SDS011;68072;51.688;7.842;2023-02-28T15:10:37;3.63;;;2.05;;
78752;SDS011;68072;51.688;7.842;2023-02-28T15:13:05;2.55;;;2.10;;
78752;SDS011;68072;51.688;7.842;2023-02-28T15:18:22;2.65;;;2.15;;
78752;SDS011;68072;51.688;7.842;2023-02-28T15:21:02;2.50;;;1.70;;
78752;SDS011;68072;51.688;7.842;2023-02-28T15:23:30;2.38;;;2.17;;
78752;SDS011;68072;51.688;7.842;2023-02-28T15:25:56;3.55;;;2.08;;
78752;SDS011;68072;51.688;7.842;2023-02-28T15:28:22;5.20;;;2.20;;
78752;SDS011;68072;51.688;7.842;2023-02-28T15:30:53;2.28;;;2.08;;
78752;SDS011;68072;51.688;7.842;2023-02-28T15:33:21;3.33;;;2.30;;
78752;SDS011;68072;51.688;7.842;2023-02-28T15:35:48;6.18;;;2.00;;
78752;SDS011;68072;51.688;7.842;2023-02-28T15:38:16;2.17;;;2.05;;
78752;SDS011;68072;51.688;7.842;2023-02-28T15:40:50;2.42;;;2.15;;
78752;SDS011;68072;51.688;7.842;2023-02-28T15:43:28;5.22;;;2.13;;
78752;SDS011;68072;51.688;7.842;2023-02-28T15:45:56;3.65;;;2.20;;
78752;SDS011;68072;51.688;7.842;2023-02-28T15:48:25;3.78;;;2.58;;
78752;SDS011;68072;51.688;7.842;2023-02-28T15:50:56;1.80;;;1.70;;
78752;SDS011;68072;51.688;7.842;2023-02-28T15:53:24;2.10;;;1.90;;
78752;SDS011;68072;51.688;7.842;2023-02-28T15:56:04;3.83;;;2.55;;
78752;SDS011;68072;51.688;7.842;2023-02-28T15:58:31;4.40;;;2.15;;
78752;SDS011;68072;51.688;7.842;2023-02-28T16:01:39;2.00;;;1.77;;
78752;SDS011;68072;51.688;7.842;2023-02-28T16:03:50;2.30;;;2.10;;
78752;SDS011;68072;51.688;7.842;2023-02-28T16:08:42;5.53;;;2.50;;
78752;SDS011;68072;51.688;7.842;2023-02-28T16:11:11;3.22;;;2.25;;
78752;SDS011;68072;51.688;7.842;2023-02-28T16:13:36;3.65;;;2.25;;
78752;SDS011;68072;51.688;7.842;2023-02-28T16:16:02;2.20;;;1.92;;
78752;SDS011;68072;51.688;7.842;2023-02-28T16:18:27;5.88;;;2.05;;
78752;SDS011;68072;51.688;7.842;2023-02-28T16:20:53;2.92;;;2.15;;
78752;SDS011;68072;51.688;7.842;2023-02-28T16:23:18;2.60;;;2.40;;
78752;SDS011;68072;51.688;7.842;2023-02-28T16:25:44;3.13;;;2.20;;
78752;SDS011;68072;51.688;7.842;2023-02-28T16:28:21;4.43;;;2.28;;
78752;SDS011;68072;51.688;7.842;2023-02-28T16:30:53;2.83;;;2.15;;
78752;SDS011;68072;51.688;7.842;2023-02-28T16:33:19;4.40;;;2.50;;
78752;SDS011;68072;51.688;7.842;2023-02-28T16:35:44;2.40;;;2.17;;
78752;SDS011;68072;51.688;7.842;2023-02-28T16:38:10;2.10;;;2.00;;
78752;SDS011;68072;51.688;7.842;2023-02-28T16:40:35;3.83;;;2.30;;
78752;SDS011;68072;51.688;7.842;2023-02-28T16:43:01;2.92;;;2.08;;
78752;SDS011;68072;51.688;7.842;2023-02-28T16:45:38;2.92;;;2.10;;
78752;SDS011;68072;51.688;7.842;2023-02-28T16:48:04;2.45;;;2.00;;
78752;SDS011;68072;51.688;7.842;2023-02-28T16:50:29;4.30;;;2.28;;
78752;SDS011;68072;51.688;7.842;2023-02-28T16:52:57;3.95;;;2.50;;
78752;SDS011;68072;51.688;7.842;2023-02-28T16:55:23;5.68;;;2.70;;
78752;SDS011;68072;51.688;7.842;2023-02-28T16:57:55;3.92;;;2.65;;
78752;SDS011;68072;51.688;7.842;2023-02-28T17:00:22;3.88;;;2.60;;
78752;SDS011;68072;51.688;7.842;2023-02-28T17:02:48;2.47;;;2.28;;
78752;SDS011;68072;51.688;7.842;2023-02-28T17:09:15;6.22;;;2.35;;
78752;SDS011;68072;51.688;7.842;2023-02-28T17:11:51;2.10;;;1.90;;
78752;SDS011;68072;51.688;7.842;2023-02-28T17:14:16;3.30;;;2.50;;
78752;SDS011;68072;51.688;7.842;2023-02-28T17:16:42;3.35;;;2.30;;
78752;SDS011;68072;51.688;7.842;2023-02-28T17:19:12;5.55;;;2.80;;
78752;SDS011;68072;51.688;7.842;2023-02-28T17:21:39;3.97;;;2.53;;
78752;SDS011;68072;51.688;7.842;2023-02-28T17:24:07;2.25;;;2.05;;
78752;SDS011;68072;51.688;7.842;2023-02-28T17:26:32;4.10;;;2.70;;
78752;SDS011;68072;51.688;7.842;2023-02-28T17:28:58;3.40;;;2.38;;
78752;SDS011;68072;51.688;7.842;2023-02-28T17:31:23;3.28;;;2.53;;
78752;SDS011;68072;51.688;7.842;2023-02-28T17:33:50;2.58;;;2.38;;
78752;SDS011;68072;51.688;7.842;2023-02-28T17:36:16;2.63;;;2.17;;
78752;SDS011;68072;51.688;7.842;2023-02-28T17:38:47;3.88;;;2.30;;
78752;SDS011;68072;51.688;7.842;2023-02-28T17:41:12;2.50;;;2.30;;
78752;SDS011;68072;51.688;7.842;2023-02-28T17:43:38;7.60;;;2.72;;
78752;SDS011;68072;51.688;7.842;2023-02-28T17:46:03;2.83;;;2.13;;
78752;SDS011;68072;51.688;7.842;2023-02-28T17:48:30;2.90;;;2.50;;
78752;SDS011;68072;51.688;7.842;2023-02-28T17:50:56;4.13;;;2.40;;